sensor_id;sensor_type;location;lat;lon;timestamp;pressure;altitude;pressure_sealevel;temperature;humidity
20909;BME280;10614;53.198;6.570;2023-02-16T00:00:36;102284.38;;;6.18;100.00
20909;BME280;10614;53.198;6.570;2023-02-16T00:02:38;102286.09;;;6.16;100.00
20909;BME280;10614;53.198;6.570;2023-02-16T00:04:39;102290.44;;;6.12;100.00
20909;BME280;10614;53.198;6.570;2023-02-16T00:06:41;102290.44;;;6.12;100.00
20909;BME280;10614;53.198;6.570;2023-02-16T00:08:44;102281.72;;;6.10;100.00
20909;BME280;10614;53.198;6.570;2023-02-16T00:10:47;102290.44;;;6.09;100.00
20909;BME280;10614;53.198;6.570;2023-02-16T00:13:14;102274.75;;;6.08;100.00
20909;BME280;10614;53.198;6.570;2023-02-16T00:15:37;102276.47;;;6.06;100.00
20909;BME280;10614;53.198;6.570;2023-02-16T00:17:39;102278.22;;;6.05;100.00
20909;BME280;10614;53.198;6.570;2023-02-16T00:19:40;102279.97;;;6.03;100.00
20909;BME280;10614;53.198;6.570;2023-02-16T00:21:42;102281.72;;;6.03;100.00
20909;BME280;10614;53.198;6.570;2023-02-16T00:23:44;102279.97;;;6.00;100.00
20909;BME280;10614;53.198;6.570;2023-02-16T00:25:48;102283.44;;;6.01;100.00
20909;BME280;10614;53.198;6.570;2023-02-16T00:27:50;102277.34;;;6.00;100.00
20909;BME280;10614;53.198;6.570;2023-02-16T00:29:52;102284.31;;;6.01;100.00
20909;BME280;10614;53.198;6.570;2023-02-16T00:31:54;102272.13;;;5.99;100.00
20909;BME280;10614;53.198;6.570;2023-02-16T00:33:56;102286.94;;;5.98;100.00
20909;BME280;10614;53.198;6.570;2023-02-16T00:35:58;102271.22;;;5.97;100.00
20909;BME280;10614;53.198;6.570;2023-02-16T00:38:00;102266.88;;;5.96;100.00
20909;BME280;10614;53.198;6.570;2023-02-16T00:40:01;102266.88;;;5.94;100.00
20909;BME280;10614;53.198;6.570;2023-02-16T00:42:11;102265.13;;;5.93;100.00
20909;BME280;10614;53.198;6.570;2023-02-16T00:44:16;102264.25;;;5.92;100.00
20909;BME280;10614;53.198;6.570;2023-02-16T00:46:19;102266.84;;;5.91;100.00
20909;BME280;10614;53.198;6.570;2023-02-16T00:48:21;102264.22;;;5.89;100.00
20909;BME280;10614;53.198;6.570;2023-02-16T00:50:25;102268.56;;;5.87;100.00
20909;BME280;10614;53.198;6.570;2023-02-16T00:52:31;102271.19;;;5.87;100.00
20909;BME280;10614;53.198;6.570;2023-02-16T00:54:33;102270.34;;;5.85;100.00
20909;BME280;10614;53.198;6.570;2023-02-16T00:56:35;102272.94;;;5.84;100.00
20909;BME280;10614;53.198;6.570;2023-02-16T00:58:38;102272.91;;;5.82;100.00
20909;BME280;10614;53.198;6.570;2023-02-16T01:00:41;102275.53;;;5.82;100.00
20909;BME280;10614;53.198;6.570;2023-02-16T01:02:45;102277.28;;;5.82;100.00
20909;BME280;10614;53.198;6.570;2023-02-16T01:04:47;102274.66;;;5.80;100.00
20909;BME280;10614;53.198;6.570;2023-02-16T01:06:49;102278.13;;;5.79;100.00
20909;BME280;10614;53.198;6.570;2023-02-16T01:09:12;102267.69;;;5.78;100.00
20909;BME280;10614;53.198;6.570;2023-02-16T01:11:31;102270.31;;;5.76;100.00
20909;BME280;10614;53.198;6.570;2023-02-16T01:13:38;102268.56;;;5.74;100.00
20909;BME280;10614;53.198;6.570;2023-02-16T01:15:41;102265.94;;;5.72;100.00
20909;BME280;10614;53.198;6.570;2023-02-16T01:17:44;102256.34;;;5.71;100.00
20909;BME280;10614;53.198;6.570;2023-02-16T01:19:45;102251.09;;;5.68;100.00
20909;BME280;10614;53.198;6.570;2023-02-16T01:21:47;102257.22;;;5.67;100.00
20909;BME280;10614;53.198;6.570;2023-02-16T01:23:48;102261.53;;;5.66;100.00
20909;BME280;10614;53.198;6.570;2023-02-16T01:25:50;102252.00;;;5.67;100.00
20909;BME280;10614;53.198;6.570;2023-02-16T01:27:51;102255.44;;;5.66;100.00
20909;BME280;10614;53.198;6.570;2023-02-16T01:29:54;102257.19;;;5.65;100.00
20909;BME280;10614;53.198;6.570;2023-02-16T01:31:56;102249.34;;;5.65;100.00
20909;BME280;10614;53.198;6.570;2023-02-16T01:33:57;102253.72;;;5.65;100.00
20909;BME280;10614;53.198;6.570;2023-02-16T01:35:59;102254.56;;;5.64;100.00
20909;BME280;10614;53.198;6.570;2023-02-16T01:38:01;102248.47;;;5.62;100.00
20909;BME280;10614;53.198;6.570;2023-02-16T01:40:03;102241.50;;;5.59;100.00
20909;BME280;10614;53.198;6.570;2023-02-16T01:42:11;102243.25;;;5.59;100.00
20909;BME280;10614;53.198;6.570;2023-02-16T01:44:16;102238.88;;;5.56;100.00
20909;BME280;10614;53.198;6.570;2023-02-16T01:46:24;102234.53;;;5.57;100.00
20909;BME280;10614;53.198;6.570;2023-02-16T01:48:30;102231.94;;;5.55;100.00
20909;BME280;10614;53.198;6.570;2023-02-16T01:50:42;102226.69;;;5.54;100.00
20909;BME280;10614;53.198;6.570;2023-02-16T01:52:51;102228.44;;;5.53;100.00
20909;BME280;10614;53.198;6.570;2023-02-16T01:54:59;102235.41;;;5.53;100.00
20909;BME280;10614;53.198;6.570;2023-02-16T01:57:05;102225.81;;;5.48;100.00
20909;BME280;10614;53.198;6.570;2023-02-16T01:59:29;102230.16;;;5.49;100.00
20909;BME280;10614;53.198;6.570;2023-02-16T02:01:41;102227.56;;;5.48;100.00
20909;BME280;10614;53.198;6.570;2023-02-16T02:03:44;102221.44;;;5.46;100.00
20909;BME280;10614;53.198;6.570;2023-02-16T02:06:04;102218.84;;;5.46;100.00
20909;BME280;10614;53.198;6.570;2023-02-16T02:08:15;102217.94;;;5.42;100.00
20909;BME280;10614;53.198;6.570;2023-02-16T02:10:24;102219.69;;;5.42;100.00
20909;BME280;10614;53.198;6.570;2023-02-16T02:12:34;102213.59;;;5.41;100.00
20909;BME280;10614;53.198;6.570;2023-02-16T02:14:38;102210.09;;;5.42;100.00
20909;BME280;10614;53.198;6.570;2023-02-16T02:16:51;102211.84;;;5.40;100.00
20909;BME280;10614;53.198;6.570;2023-02-16T02:18:53;102214.44;;;5.40;100.00
20909;BME280;10614;53.198;6.570;2023-02-16T02:21:34;102215.31;;;5.39;100.00
20909;BME280;10614;53.198;6.570;2023-02-16T02:24:20;102209.22;;;5.37;100.00
20909;BME280;10614;53.198;6.570;2023-02-16T02:26:58;102212.69;;;5.38;100.00
20909;BME280;10614;53.198;6.570;2023-02-16T02:29:16;102206.59;;;5.36;100.00
20909;BME280;10614;53.198;6.570;2023-02-16T02:31:28;102208.31;;;5.34;100.00
20909;BME280;10614;53.198;6.570;2023-02-16T02:33:42;102207.47;;;5.33;100.00
20909;BME280;10614;53.198;6.570;2023-02-16T02:35:50;102206.59;;;5.33;100.00
20909;BME280;10614;53.198;6.570;2023-02-16T02:38:07;102200.50;;;5.34;100.00
20909;BME280;10614;53.198;6.570;2023-02-16T02:40:16;102196.16;;;5.33;100.00
20909;BME280;10614;53.198;6.570;2023-02-16T02:42:25;102198.75;;;5.31;100.00
20909;BME280;10614;53.198;6.570;2023-02-16T02:44:36;102197.00;;;5.28;100.00
20909;BME280;10614;53.198;6.570;2023-02-16T02:46:39;102182.19;;;5.23;100.00
20909;BME280;10614;53.198;6.570;2023-02-16T02:48:41;102192.63;;;5.26;100.00
20909;BME280;10614;53.198;6.570;2023-02-16T02:50:47;102187.41;;;5.23;100.00
20909;BME280;10614;53.198;6.570;2023-02-16T02:53:11;102180.44;;;5.22;100.00
20909;BME280;10614;53.198;6.570;2023-02-16T02:55:13;102183.94;;;5.21;100.00
20909;BME280;10614;53.198;6.570;2023-02-16T02:57:37;102177.81;;;5.17;100.00
20909;BME280;10614;53.198;6.570;2023-02-16T03:00:00;102182.19;;;5.20;100.00
20909;BME280;10614;53.198;6.570;2023-02-16T03:02:22;102176.97;;;5.20;100.00
20909;BME280;10614;53.198;6.570;2023-02-16T03:04:27;102177.81;;;5.22;100.00
20909;BME280;10614;53.198;6.570;2023-02-16T03:06:32;102174.34;;;5.21;100.00
20909;BME280;10614;53.198;6.570;2023-02-16T03:08:38;102173.47;;;5.21;100.00
20909;BME280;10614;53.198;6.570;2023-02-16T03:10:44;102167.41;;;5.20;100.00
20909;BME280;10614;53.198;6.570;2023-02-16T03:13:11;102170.00;;;5.22;100.00
20909;BME280;10614;53.198;6.570;2023-02-16T03:15:13;102164.78;;;5.20;100.00
20909;BME280;10614;53.198;6.570;2023-02-16T03:17:18;102166.53;;;5.23;100.00
20909;BME280;10614;53.198;6.570;2023-02-16T03:19:41;102161.31;;;5.23;100.00
20909;BME280;10614;53.198;6.570;2023-02-16T03:22:01;102162.19;;;5.20;100.00
20909;BME280;10614;53.198;6.570;2023-02-16T03:24:23;102154.38;;;5.25;100.00
20909;BME280;10614;53.198;6.570;2023-02-16T03:26:45;102155.22;;;5.25;100.00
20909;BME280;10614;53.198;6.570;2023-02-16T03:29:07;102154.38;;;5.25;100.00
20909;BME280;10614;53.198;6.570;2023-02-16T03:31:24;102156.97;;;5.28;100.00
20909;BME280;10614;53.198;6.570;2023-02-16T03:33:28;102156.09;;;5.27;100.00
20909;BME280;10614;53.198;6.570;2023-02-16T03:35:30;102146.53;;;5.28;100.00
20909;BME280;10614;53.198;6.570;2023-02-16T03:37:32;102154.38;;;5.28;100.00
20909;BME280;10614;53.198;6.570;2023-02-16T03:39:34;102144.81;;;5.30;100.00
20909;BME280;10614;53.198;6.570;2023-02-16T03:41:57;102157.00;;;5.33;100.00
20909;BME280;10614;53.198;6.570;2023-02-16T03:43:59;102153.50;;;5.32;100.00
20909;BME280;10614;53.198;6.570;2023-02-16T03:46:02;102144.78;;;5.33;100.00
20909;BME280;10614;53.198;6.570;2023-02-16T03:48:04;102150.03;;;5.35;100.00
20909;BME280;10614;53.198;6.570;2023-02-16T03:50:06;102152.66;;;5.35;100.00
20909;BME280;10614;53.198;6.570;2023-02-16T03:52:08;102146.53;;;5.36;100.00
20909;BME280;10614;53.198;6.570;2023-02-16T03:54:10;102150.03;;;5.38;100.00
20909;BME280;10614;53.198;6.570;2023-02-16T03:56:11;102150.91;;;5.40;100.00
20909;BME280;10614;53.198;6.570;2023-02-16T03:58:17;102156.16;;;5.41;100.00
20909;BME280;10614;53.198;6.570;2023-02-16T04:00:19;102151.78;;;5.42;100.00
20909;BME280;10614;53.198;6.570;2023-02-16T04:02:22;102150.91;;;5.43;100.00
20909;BME280;10614;53.198;6.570;2023-02-16T04:04:24;102144.81;;;5.42;100.00
20909;BME280;10614;53.198;6.570;2023-02-16T04:06:25;102151.81;;;5.43;100.00
20909;BME280;10614;53.198;6.570;2023-02-16T04:08:27;102147.44;;;5.44;100.00
20909;BME280;10614;53.198;6.570;2023-02-16T04:10:29;102151.78;;;5.45;100.00
20909;BME280;10614;53.198;6.570;2023-02-16T04:12:30;102158.78;;;5.46;100.00
20909;BME280;10614;53.198;6.570;2023-02-16T04:14:37;102142.22;;;5.45;100.00
20909;BME280;10614;53.198;6.570;2023-02-16T04:16:38;102140.50;;;5.46;100.00
20909;BME280;10614;53.198;6.570;2023-02-16T04:18:42;102137.88;;;5.47;100.00
20909;BME280;10614;53.198;6.570;2023-02-16T04:20:43;102141.38;;;5.48;100.00
20909;BME280;10614;53.198;6.570;2023-02-16T04:22:46;102150.94;;;5.50;100.00
20909;BME280;10614;53.198;6.570;2023-02-16T04:24:47;102142.22;;;5.48;100.00
20909;BME280;10614;53.198;6.570;2023-02-16T04:26:49;102144.84;;;5.48;100.00
20909;BME280;10614;53.198;6.570;2023-02-16T04:28:51;102143.09;;;5.52;100.00
20909;BME280;10614;53.198;6.570;2023-02-16T04:30:52;102136.16;;;5.53;100.00
20909;BME280;10614;53.198;6.570;2023-02-16T04:32:54;102137.00;;;5.55;100.00
20909;BME280;10614;53.198;6.570;2023-02-16T04:34:57;102143.09;;;5.57;100.00
20909;BME280;10614;53.198;6.570;2023-02-16T04:36:59;102140.50;;;5.57;100.00
20909;BME280;10614;53.198;6.570;2023-02-16T04:39:01;102143.13;;;5.58;100.00
20909;BME280;10614;53.198;6.570;2023-02-16T04:41:03;102140.53;;;5.60;100.00
20909;BME280;10614;53.198;6.570;2023-02-16T04:43:05;102135.28;;;5.60;100.00
20909;BME280;10614;53.198;6.570;2023-02-16T04:45:07;102136.13;;;5.62;100.00
20909;BME280;10614;53.198;6.570;2023-02-16T04:47:09;102146.59;;;5.60;100.00
20909;BME280;10614;53.198;6.570;2023-02-16T04:49:11;102149.19;;;5.62;100.00
20909;BME280;10614;53.198;6.570;2023-02-16T04:51:14;102144.84;;;5.64;100.00
20909;BME280;10614;53.198;6.570;2023-02-16T04:53:15;102138.78;;;5.65;100.00
20909;BME280;10614;53.198;6.570;2023-02-16T04:55:17;102145.75;;;5.67;100.00
20909;BME280;10614;53.198;6.570;2023-02-16T04:57:19;102133.56;;;5.65;100.00
20909;BME280;10614;53.198;6.570;2023-02-16T04:59:23;102144.00;;;5.68;100.00
20909;BME280;10614;53.198;6.570;2023-02-16T05:01:26;102138.78;;;5.69;100.00
20909;BME280;10614;53.198;6.570;2023-02-16T05:03:28;102133.56;;;5.69;100.00
20909;BME280;10614;53.198;6.570;2023-02-16T05:05:29;102130.94;;;5.69;100.00
20909;BME280;10614;53.198;6.570;2023-02-16T05:07:32;102136.16;;;5.71;100.00
20909;BME280;10614;53.198;6.570;2023-02-16T05:09:35;102130.06;;;5.70;100.00
20909;BME280;10614;53.198;6.570;2023-02-16T05:11:36;102134.41;;;5.73;100.00
20909;BME280;10614;53.198;6.570;2023-02-16T05:13:56;102135.28;;;5.75;100.00
20909;BME280;10614;53.198;6.570;2023-02-16T05:16:15;102131.81;;;5.75;100.00
20909;BME280;10614;53.198;6.570;2023-02-16T05:18:16;102131.81;;;5.76;100.00
20909;BME280;10614;53.198;6.570;2023-02-16T05:20:18;102128.34;;;5.77;100.00
20909;BME280;10614;53.198;6.570;2023-02-16T05:22:41;102132.69;;;5.77;100.00
20909;BME280;10614;53.198;6.570;2023-02-16T05:24:44;102135.28;;;5.78;100.00
20909;BME280;10614;53.198;6.570;2023-02-16T05:26:46;102134.44;;;5.79;100.00
20909;BME280;10614;53.198;6.570;2023-02-16T05:28:47;102138.78;;;5.80;100.00
20909;BME280;10614;53.198;6.570;2023-02-16T05:30:49;102142.28;;;5.81;100.00
20909;BME280;10614;53.198;6.570;2023-02-16T05:32:50;102144.91;;;5.81;100.00
20909;BME280;10614;53.198;6.570;2023-02-16T05:34:52;102144.91;;;5.81;100.00
20909;BME280;10614;53.198;6.570;2023-02-16T05:36:54;102145.75;;;5.81;100.00
20909;BME280;10614;53.198;6.570;2023-02-16T05:38:56;102141.41;;;5.82;100.00
20909;BME280;10614;53.198;6.570;2023-02-16T05:40:58;102137.91;;;5.81;100.00
20909;BME280;10614;53.198;6.570;2023-02-16T05:43:00;102137.91;;;5.81;100.00
20909;BME280;10614;53.198;6.570;2023-02-16T05:45:01;102134.41;;;5.82;100.00
20909;BME280;10614;53.198;6.570;2023-02-16T05:47:04;102137.03;;;5.82;100.00
20909;BME280;10614;53.198;6.570;2023-02-16T05:49:06;102127.44;;;5.83;100.00
20909;BME280;10614;53.198;6.570;2023-02-16T05:51:08;102128.34;;;5.83;100.00
20909;BME280;10614;53.198;6.570;2023-02-16T05:53:09;102117.88;;;5.82;100.00
20909;BME280;10614;53.198;6.570;2023-02-16T05:55:12;102123.13;;;5.83;100.00
20909;BME280;10614;53.198;6.570;2023-02-16T05:57:14;102130.94;;;5.85;100.00
20909;BME280;10614;53.198;6.570;2023-02-16T05:59:16;102131.84;;;5.85;100.00
20909;BME280;10614;53.198;6.570;2023-02-16T06:01:18;102137.06;;;5.85;100.00
20909;BME280;10614;53.198;6.570;2023-02-16T06:03:20;102132.69;;;5.86;100.00
20909;BME280;10614;53.198;6.570;2023-02-16T06:05:22;102131.81;;;5.87;100.00
20909;BME280;10614;53.198;6.570;2023-02-16T06:07:23;102116.16;;;5.88;100.00
20909;BME280;10614;53.198;6.570;2023-02-16T06:09:25;102117.00;;;5.89;100.00
20909;BME280;10614;53.198;6.570;2023-02-16T06:11:28;102120.50;;;5.88;100.00
20909;BME280;10614;53.198;6.570;2023-02-16T06:13:36;102125.72;;;5.85;100.00
20909;BME280;10614;53.198;6.570;2023-02-16T06:15:37;102126.59;;;5.85;100.00
20909;BME280;10614;53.198;6.570;2023-02-16T06:17:39;102124.84;;;5.86;100.00
20909;BME280;10614;53.198;6.570;2023-02-16T06:19:43;102130.06;;;5.87;100.00
20909;BME280;10614;53.198;6.570;2023-02-16T06:21:45;102129.19;;;5.87;100.00
20909;BME280;10614;53.198;6.570;2023-02-16T06:23:47;102130.06;;;5.87;100.00
20909;BME280;10614;53.198;6.570;2023-02-16T06:25:50;102123.97;;;5.87;100.00
20909;BME280;10614;53.198;6.570;2023-02-16T06:27:53;102123.97;;;5.87;100.00
20909;BME280;10614;53.198;6.570;2023-02-16T06:29:56;102126.59;;;5.85;100.00
20909;BME280;10614;53.198;6.570;2023-02-16T06:31:57;102130.06;;;5.84;100.00
20909;BME280;10614;53.198;6.570;2023-02-16T06:33:59;102128.31;;;5.85;100.00
20909;BME280;10614;53.198;6.570;2023-02-16T06:36:03;102123.97;;;5.84;100.00
20909;BME280;10614;53.198;6.570;2023-02-16T06:38:05;102125.72;;;5.85;100.00
20909;BME280;10614;53.198;6.570;2023-02-16T06:40:08;102137.06;;;5.88;100.00
20909;BME280;10614;53.198;6.570;2023-02-16T06:42:10;102136.19;;;5.88;100.00
20909;BME280;10614;53.198;6.570;2023-02-16T06:44:14;102129.19;;;5.87;100.00
20909;BME280;10614;53.198;6.570;2023-02-16T06:46:16;102129.22;;;5.88;100.00
20909;BME280;10614;53.198;6.570;2023-02-16T06:48:17;102126.59;;;5.87;100.00
20909;BME280;10614;53.198;6.570;2023-02-16T06:50:19;102120.50;;;5.88;100.00
20909;BME280;10614;53.198;6.570;2023-02-16T06:52:21;102121.38;;;5.88;100.00
20909;BME280;10614;53.198;6.570;2023-02-16T06:54:22;102122.22;;;5.89;100.00
20909;BME280;10614;53.198;6.570;2023-02-16T06:56:24;102126.59;;;5.90;100.00
20909;BME280;10614;53.198;6.570;2023-02-16T06:58:26;102127.47;;;5.90;100.00
20909;BME280;10614;53.198;6.570;2023-02-16T07:00:29;102121.34;;;5.91;100.00
20909;BME280;10614;53.198;6.570;2023-02-16T07:02:31;102137.91;;;5.92;100.00
20909;BME280;10614;53.198;6.570;2023-02-16T07:04:32;102139.69;;;5.95;100.00
20909;BME280;10614;53.198;6.570;2023-02-16T07:06:34;102143.19;;;5.95;100.00
20909;BME280;10614;53.198;6.570;2023-02-16T07:08:36;102138.81;;;5.96;100.00
20909;BME280;10614;53.198;6.570;2023-02-16T07:10:41;102146.69;;;5.97;100.00
20909;BME280;10614;53.198;6.570;2023-02-16T07:12:43;102138.81;;;5.99;100.00
20909;BME280;10614;53.198;6.570;2023-02-16T07:14:44;102133.59;;;5.99;100.00
20909;BME280;10614;53.198;6.570;2023-02-16T07:16:47;102131.84;;;5.99;100.00
20909;BME280;10614;53.198;6.570;2023-02-16T07:18:49;102138.81;;;6.00;100.00
20909;BME280;10614;53.198;6.570;2023-02-16T07:20:50;102144.06;;;6.02;100.00
20909;BME280;10614;53.198;6.570;2023-02-16T07:22:52;102145.78;;;6.01;100.00
20909;BME280;10614;53.198;6.570;2023-02-16T07:24:54;102157.09;;;6.03;100.00
20909;BME280;10614;53.198;6.570;2023-02-16T07:26:56;102149.28;;;6.02;100.00
20909;BME280;10614;53.198;6.570;2023-02-16T07:28:58;102145.81;;;6.04;100.00
20909;BME280;10614;53.198;6.570;2023-02-16T07:31:05;102158.84;;;6.06;100.00
20909;BME280;10614;53.198;6.570;2023-02-16T07:33:08;102149.28;;;6.06;100.00
20909;BME280;10614;53.198;6.570;2023-02-16T07:35:10;102157.13;;;6.06;100.00
20909;BME280;10614;53.198;6.570;2023-02-16T07:37:12;102148.41;;;6.07;100.00
20909;BME280;10614;53.198;6.570;2023-02-16T07:39:13;102151.88;;;6.08;100.00
20909;BME280;10614;53.198;6.570;2023-02-16T07:41:15;102152.75;;;6.07;100.00
20909;BME280;10614;53.198;6.570;2023-02-16T07:43:16;102157.09;;;6.08;100.00
20909;BME280;10614;53.198;6.570;2023-02-16T07:45:18;102153.63;;;6.07;100.00
20909;BME280;10614;53.198;6.570;2023-02-16T07:47:20;102162.34;;;6.09;100.00
20909;BME280;10614;53.198;6.570;2023-02-16T07:49:23;102159.72;;;6.11;100.00
20909;BME280;10614;53.198;6.570;2023-02-16T07:51:27;102165.84;;;6.11;100.00
20909;BME280;10614;53.198;6.570;2023-02-16T07:53:30;102160.59;;;6.11;100.00
20909;BME280;10614;53.198;6.570;2023-02-16T07:55:32;102168.44;;;6.13;100.00
20909;BME280;10614;53.198;6.570;2023-02-16T07:57:33;102158.84;;;6.17;100.00
20909;BME280;10614;53.198;6.570;2023-02-16T07:59:35;102162.34;;;6.17;100.00
20909;BME280;10614;53.198;6.570;2023-02-16T08:01:36;102170.19;;;6.17;100.00
20909;BME280;10614;53.198;6.570;2023-02-16T08:03:39;102167.56;;;6.20;100.00
20909;BME280;10614;53.198;6.570;2023-02-16T08:05:42;102166.69;;;6.21;100.00
20909;BME280;10614;53.198;6.570;2023-02-16T08:07:44;102164.94;;;6.22;100.00
20909;BME280;10614;53.198;6.570;2023-02-16T08:09:47;102166.69;;;6.21;100.00
20909;BME280;10614;53.198;6.570;2023-02-16T08:11:48;102172.78;;;6.22;100.00
20909;BME280;10614;53.198;6.570;2023-02-16T08:13:50;102173.66;;;6.22;100.00
20909;BME280;10614;53.198;6.570;2023-02-16T08:15:52;102171.06;;;6.24;100.00
20909;BME280;10614;53.198;6.570;2023-02-16T08:17:53;102175.41;;;6.26;100.00
20909;BME280;10614;53.198;6.570;2023-02-16T08:19:55;102173.69;;;6.25;100.00
20909;BME280;10614;53.198;6.570;2023-02-16T08:21:58;102168.44;;;6.27;100.00
20909;BME280;10614;53.198;6.570;2023-02-16T08:24:03;102172.81;;;6.28;100.00
20909;BME280;10614;53.198;6.570;2023-02-16T08:26:07;102168.44;;;6.28;100.00
20909;BME280;10614;53.198;6.570;2023-02-16T08:28:10;102175.41;;;6.29;100.00
20909;BME280;10614;53.198;6.570;2023-02-16T08:30:14;102173.66;;;6.31;100.00
20909;BME280;10614;53.198;6.570;2023-02-16T08:32:17;102176.28;;;6.33;100.00
20909;BME280;10614;53.198;6.570;2023-02-16T08:34:19;102178.00;;;6.34;100.00
20909;BME280;10614;53.198;6.570;2023-02-16T08:36:22;102184.97;;;6.37;100.00
20909;BME280;10614;53.198;6.570;2023-02-16T08:38:27;102177.13;;;6.37;100.00
20909;BME280;10614;53.198;6.570;2023-02-16T08:40:31;102184.13;;;6.38;100.00
20909;BME280;10614;53.198;6.570;2023-02-16T08:42:33;102179.75;;;6.41;100.00
20909;BME280;10614;53.198;6.570;2023-02-16T08:44:35;102184.13;;;6.42;100.00
20909;BME280;10614;53.198;6.570;2023-02-16T08:46:38;102171.03;;;6.42;100.00
20909;BME280;10614;53.198;6.570;2023-02-16T08:48:40;102173.63;;;6.44;100.00
20909;BME280;10614;53.198;6.570;2023-02-16T08:50:44;102175.38;;;6.45;100.00
20909;BME280;10614;53.198;6.570;2023-02-16T08:52:52;102184.97;;;6.47;100.00
20909;BME280;10614;53.198;6.570;2023-02-16T08:54:55;102178.84;;;6.48;100.00
20909;BME280;10614;53.198;6.570;2023-02-16T08:56:57;102178.00;;;6.49;100.00
20909;BME280;10614;53.198;6.570;2023-02-16T08:59:01;102182.34;;;6.50;100.00
20909;BME280;10614;53.198;6.570;2023-02-16T09:01:03;102185.84;;;6.51;100.00
20909;BME280;10614;53.198;6.570;2023-02-16T09:03:05;102181.47;;;6.51;100.00
20909;BME280;10614;53.198;6.570;2023-02-16T09:05:07;102173.63;;;6.53;100.00
20909;BME280;10614;53.198;6.570;2023-02-16T09:07:09;102181.47;;;6.56;100.00
20909;BME280;10614;53.198;6.570;2023-02-16T09:09:11;102181.44;;;6.58;100.00
20909;BME280;10614;53.198;6.570;2023-02-16T09:11:15;102171.88;;;6.60;100.00
20909;BME280;10614;53.198;6.570;2023-02-16T09:13:17;102184.06;;;6.62;100.00
20909;BME280;10614;53.198;6.570;2023-02-16T09:15:18;102176.22;;;6.62;100.00
20909;BME280;10614;53.198;6.570;2023-02-16T09:17:20;102175.34;;;6.63;100.00
20909;BME280;10614;53.198;6.570;2023-02-16T09:19:22;102183.19;;;6.65;100.00
20909;BME280;10614;53.198;6.570;2023-02-16T09:21:24;102173.63;;;6.65;100.00
20909;BME280;10614;53.198;6.570;2023-02-16T09:23:26;102176.22;;;6.68;100.00
20909;BME280;10614;53.198;6.570;2023-02-16T09:25:28;102180.56;;;6.69;100.00
20909;BME280;10614;53.198;6.570;2023-02-16T09:27:30;102184.06;;;6.70;100.00
20909;BME280;10614;53.198;6.570;2023-02-16T09:29:33;102180.56;;;6.71;100.00
20909;BME280;10614;53.198;6.570;2023-02-16T09:31:35;102188.41;;;6.72;100.00
20909;BME280;10614;53.198;6.570;2023-02-16T09:33:39;102189.28;;;6.74;100.00
20909;BME280;10614;53.198;6.570;2023-02-16T09:35:41;102193.63;;;6.75;100.00
20909;BME280;10614;53.198;6.570;2023-02-16T09:37:42;102197.97;;;6.76;100.00
20909;BME280;10614;53.198;6.570;2023-02-16T09:39:44;102192.75;;;6.78;100.00
20909;BME280;10614;53.198;6.570;2023-02-16T09:42:01;102193.63;;;6.80;100.00
20909;BME280;10614;53.198;6.570;2023-02-16T09:44:13;102194.50;;;6.81;100.00
20909;BME280;10614;53.198;6.570;2023-02-16T09:46:19;102196.22;;;6.85;100.00
20909;BME280;10614;53.198;6.570;2023-02-16T09:48:29;102198.81;;;6.88;100.00
20909;BME280;10614;53.198;6.570;2023-02-16T09:50:34;102197.94;;;6.90;100.00
20909;BME280;10614;53.198;6.570;2023-02-16T09:52:37;102191.81;;;6.93;100.00
20909;BME280;10614;53.198;6.570;2023-02-16T09:54:45;102198.81;;;6.95;100.00
20909;BME280;10614;53.198;6.570;2023-02-16T09:56:52;102199.66;;;6.97;100.00
20909;BME280;10614;53.198;6.570;2023-02-16T09:59:00;102204.91;;;6.99;100.00
20909;BME280;10614;53.198;6.570;2023-02-16T10:01:12;102211.00;;;7.00;100.00
20909;BME280;10614;53.198;6.570;2023-02-16T10:03:37;102218.88;;;7.00;100.00
20909;BME280;10614;53.198;6.570;2023-02-16T10:05:48;102211.03;;;7.03;100.00
20909;BME280;10614;53.198;6.570;2023-02-16T10:07:59;102214.50;;;7.05;100.00
20909;BME280;10614;53.198;6.570;2023-02-16T10:10:02;102216.25;;;7.06;100.00
20909;BME280;10614;53.198;6.570;2023-02-16T10:12:07;102204.03;;;7.08;100.00
20909;BME280;10614;53.198;6.570;2023-02-16T10:14:15;102206.63;;;7.08;100.00
20909;BME280;10614;53.198;6.570;2023-02-16T10:16:25;102217.97;;;7.10;100.00
20909;BME280;10614;53.198;6.570;2023-02-16T10:18:30;102206.63;;;7.11;100.00
20909;BME280;10614;53.198;6.570;2023-02-16T10:20:35;102203.13;;;7.12;100.00
20909;BME280;10614;53.198;6.570;2023-02-16T10:22:40;102197.00;;;7.14;100.00
20909;BME280;10614;53.198;6.570;2023-02-16T10:24:47;102182.16;;;7.16;100.00
20909;BME280;10614;53.198;6.570;2023-02-16T10:26:58;102175.16;;;7.15;100.00
20909;BME280;10614;53.198;6.570;2023-02-16T10:29:05;102180.38;;;7.18;100.00
20909;BME280;10614;53.198;6.570;2023-02-16T10:31:12;102175.16;;;7.22;100.00
20909;BME280;10614;53.198;6.570;2023-02-16T10:33:28;102168.16;;;7.24;100.00
20909;BME280;10614;53.198;6.570;2023-02-16T10:35:41;102188.22;;;7.26;100.00
20909;BME280;10614;53.198;6.570;2023-02-16T10:37:53;102189.97;;;7.29;100.00
20909;BME280;10614;53.198;6.570;2023-02-16T10:40:13;102201.31;;;7.31;100.00
20909;BME280;10614;53.198;6.570;2023-02-16T10:42:26;102197.78;;;7.32;100.00
20909;BME280;10614;53.198;6.570;2023-02-16T10:44:33;102205.66;;;7.32;100.00
20909;BME280;10614;53.198;6.570;2023-02-16T10:46:41;102207.41;;;7.33;100.00
20909;BME280;10614;53.198;6.570;2023-02-16T10:48:45;102216.13;;;7.32;100.00
20909;BME280;10614;53.198;6.570;2023-02-16T10:50:54;102213.50;;;7.33;100.00
20909;BME280;10614;53.198;6.570;2023-02-16T10:52:59;102223.13;;;7.31;100.00
20909;BME280;10614;53.198;6.570;2023-02-16T10:55:02;102228.34;;;7.34;100.00